Terminal Aerodrome Forecast
Issued by NWS Grand Forks, ND

Home | Current Version | Previous Version | Graphics & Text | Print | Product List | Glossary On
Versions: 1 2 3 4 5 6 7 8 9 10 11 12 13 14 15 16 17 18 19 20 21
000
FTUS43 KFGF 232000 AAA
TAFGFK
TAF AMD
KGFK 232023Z 2320/2418 32014KT P6SM BKN025
     FM232200 34015G22KT 4SM -FZDZ BR BKN015
     FM240000 35022G30KT 4SM -SN OVC015
     FM240300 34028G35KT 3SM -SN BKN015
      TEMPO 2403/2407 1SM -SN BLSN
     FM241200 34025G33KT P6SM BKN025=

USA.gov is the U.S. government's official web portal to all federal, state and local government web resources and services.